Time;durP1;ratioP1;P1;durP2;ratioP2;P2;SDS_P1;SDS_P2;PMS_P1;PMS_P2;Temp;Humidity;BMP_temperature;BMP_pressure;BME280_temperature;BME280_humidity;BME280_pressure;Samples;Min_cycle;Max_cycle;Signal;HPM_P1;HPM_P2
2021/07/11 00:00:45;;;;;;;36.40;27.33;;;20.90;99.90;;;21.38;75.37;101498.56;4994223;28;20050;-70
2021/07/11 00:03:13;;;;;;;31.95;26.38;;;20.90;99.90;;;21.43;75.18;101499.25;4995756;28;20046;-70
2021/07/11 00:05:42;;;;;;;33.25;27.05;;;20.90;99.90;;;21.41;75.14;101494.84;4995480;28;20050;-70
2021/07/11 00:08:10;;;;;;;34.10;26.08;;;21.00;99.90;;;21.52;75.00;101506.97;4995340;28;20136;-70
2021/07/11 00:10:39;;;;;;;35.15;26.55;;;21.10;99.90;;;21.66;74.44;101501.03;4995650;28;20053;-69
2021/07/11 00:13:08;;;;;;;32.72;26.88;;;21.20;99.90;;;21.61;74.63;101499.47;4995093;28;20447;-70
2021/07/11 00:15:37;;;;;;;30.85;25.88;;;21.20;99.90;;;21.55;74.86;101498.78;4993923;28;20400;-69
2021/07/11 00:18:06;;;;;;;30.92;25.50;;;21.10;99.90;;;21.52;74.40;101504.28;4995459;28;20088;-70
2021/07/11 00:20:34;;;;;;;32.05;26.77;;;21.10;99.90;;;21.49;73.90;101508.91;4994898;28;20053;-70
2021/07/11 00:23:03;;;;;;;35.55;26.30;;;21.10;99.90;;;21.37;74.65;101518.34;4993837;28;20124;-69
2021/07/11 00:25:31;;;;;;;33.35;25.52;;;21.00;99.90;;;21.35;74.98;101522.03;4994762;28;20058;-69
2021/07/11 00:28:00;;;;;;;33.33;27.92;;;20.90;99.90;;;21.21;75.44;101529.75;4995031;28;20074;-70
2021/07/11 00:30:29;;;;;;;36.42;29.17;;;20.80;99.90;;;21.13;75.92;101535.44;4994881;28;20100;-69
2021/07/11 00:32:58;;;;;;;39.97;31.60;;;20.70;99.90;;;21.05;76.51;101536.63;5010106;28;20046;-70
2021/07/11 00:35:27;;;;;;;41.45;31.48;;;20.70;99.90;;;20.94;76.89;101530.75;4994877;28;20043;-70
2021/07/11 00:37:55;;;;;;;42.65;33.25;;;20.60;99.90;;;20.84;77.43;101537.38;4994798;28;20061;-68
2021/07/11 00:40:25;;;;;;;43.03;33.33;;;20.50;99.90;;;20.75;77.77;101540.41;4993802;28;20056;-68
2021/07/11 00:42:54;;;;;;;42.67;33.95;;;20.40;99.90;;;20.73;77.99;101542.28;4994777;28;20104;-68
2021/07/11 00:45:25;;;;;;;45.72;33.53;;;20.30;99.90;;;20.73;78.13;101534.19;5009906;28;20054;-68
2021/07/11 00:47:56;;;;;;;;;;;20.40;99.90;;;20.62;78.11;101507.69;4993901;28;20081;-68
2021/07/11 00:50:25;;;;;;;48.10;35.45;;;20.40;99.90;;;20.80;78.42;101533.03;4994360;28;19921;-67
2021/07/11 00:53:00;;;;;;;46.58;35.78;;;20.40;99.90;;;20.78;78.64;101524.16;5009705;28;20077;-67
2021/07/11 00:55:29;;;;;;;47.05;37.03;;;20.40;99.90;;;20.86;78.71;101532.81;5009544;28;20054;-68
2021/07/11 00:57:58;;;;;;;48.97;37.22;;;20.40;99.90;;;20.84;78.62;101530.19;5009568;28;20058;-68
2021/07/11 01:00:35;;;;;;;46.63;34.75;;;20.40;99.90;;;20.83;79.15;101531.13;5009563;28;20137;-68
2021/07/11 01:03:16;;;;;;;51.28;35.78;;;20.40;99.90;;;20.93;79.62;101519.09;4993228;28;20073;-67
2021/07/11 01:05:49;;;;;;;46.97;37.22;;;20.50;99.90;;;21.05;79.60;101517.78;5009562;28;20054;-68
2021/07/11 01:08:27;;;;;;;47.65;37.15;;;20.60;99.90;;;20.40;79.54;101407.25;4994326;28;20043;-69
2021/07/11 01:11:03;;;;;;;46.50;35.83;;;20.60;99.90;;;21.07;79.69;101521.31;4994090;28;20125;-68
2021/07/11 01:13:33;;;;;;;48.10;37.88;;;20.70;99.90;;;21.17;79.61;101523.63;4993107;28;20066;-68
2021/07/11 01:16:08;;;;;;;46.67;35.90;;;20.70;99.90;;;21.13;79.59;101519.28;4994150;28;20444;-68
2021/07/11 01:18:39;;;;;;;51.53;36.95;;;20.70;99.90;;;21.18;79.30;101511.91;4993963;28;20286;-68
2021/07/11 01:21:14;;;;;;;49.17;37.63;;;20.80;99.90;;;21.12;79.61;101513.94;4992466;28;20133;-68
2021/07/11 01:24:08;;;;;;;46.50;36.53;;;20.70;99.90;;;21.09;80.24;101517.63;4992970;28;20042;-68
2021/07/11 01:26:39;;;;;;;49.35;37.50;;;20.70;99.90;;;21.09;80.49;101514.06;4992578;28;20074;-68
2021/07/11 01:29:09;;;;;;;45.63;35.78;;;20.70;99.90;;;21.07;80.78;101516.81;4994139;28;20038;-68
2021/07/11 01:31:38;;;;;;;45.08;32.67;;;20.70;99.90;;;21.04;80.45;101513.38;5009157;28;20050;-68
2021/07/11 01:34:08;;;;;;;44.50;32.38;;;20.60;99.90;;;21.05;80.02;101505.22;4994025;28;20121;-67
2021/07/11 01:36:37;;;;;;;42.55;32.53;;;20.70;99.90;;;21.04;79.86;101519.59;5008982;28;20042;-68
2021/07/11 01:39:07;;;;;;;;;;;20.60;99.90;;;21.03;79.75;101520.56;5009539;28;20101;-68
2021/07/11 01:41:46;;;;;;;41.55;30.13;;;20.70;99.90;;;21.01;80.07;101522.41;4991909;28;19928;-68
2021/07/11 01:44:17;;;;;;;37.40;30.08;;;20.60;99.90;;;20.91;80.47;101520.06;4993717;28;20061;-68
2021/07/11 01:46:48;;;;;;;39.33;29.30;;;20.50;99.90;;;20.81;80.07;101524.06;4994004;28;20058;-68
2021/07/11 01:49:20;;;;;;;39.05;30.98;;;20.40;99.90;;;20.97;80.10;101519.84;4993798;28;20054;-68
2021/07/11 01:51:53;;;;;;;38.90;31.17;;;20.50;99.90;;;21.00;79.92;101523.31;5008930;28;20129;-68
2021/07/11 01:54:28;;;;;;;39.92;31.38;;;20.60;99.90;;;20.96;79.96;101520.81;5008964;28;20474;-68
2021/07/11 01:56:59;;;;;;;37.85;30.60;;;20.50;99.90;;;21.07;79.31;101537.44;5008902;28;20050;-68
2021/07/11 01:59:36;;;;;;;40.78;31.48;;;20.70;99.90;;;21.04;79.61;101538.44;5009194;28;20074;-67
2021/07/11 02:02:18;;;;;;;43.83;31.55;;;20.60;99.90;;;20.96;79.73;101539.63;5008939;28;20053;-68
2021/07/11 02:04:54;;;;;;;41.75;31.30;;;20.60;99.90;;;21.09;79.33;101541.84;5008880;28;20042;-68
2021/07/11 02:07:23;;;;;;;39.15;31.50;;;20.60;99.90;;;21.04;79.50;101532.19;4992450;28;20054;-68
2021/07/11 02:09:51;;;;;;;41.85;32.78;;;20.60;99.90;;;21.03;79.50;101528.63;4992488;28;20127;-68
2021/07/11 02:12:31;;;;;;;42.92;33.35;;;20.60;99.90;;;20.91;79.81;101517.38;5008830;28;20089;-68
2021/07/11 02:15:04;;;;;;;44.03;32.92;;;20.60;99.90;;;20.88;80.05;101526.47;4993736;28;20048;-68
2021/07/11 02:17:39;;;;;;;45.70;33.50;;;20.60;99.90;;;20.89;80.37;101527.31;5008644;28;20046;-68
2021/07/11 02:20:19;;;;;;;43.15;32.97;;;20.50;99.90;;;20.83;80.49;101525.72;4992316;28;20054;-69
2021/07/11 02:22:50;;;;;;;42.95;31.88;;;20.50;99.90;;;20.83;80.24;101524.88;5008752;28;20061;-68
2021/07/11 02:25:22;;;;;;;39.60;30.33;;;20.40;99.90;;;20.81;80.43;101529.44;5008485;28;20058;-68
2021/07/11 02:27:59;;;;;;;39.97;31.70;;;20.40;99.90;;;20.80;80.31;101533.94;5008921;28;20042;-68
2021/07/11 02:30:39;;;;;;;39.65;32.28;;;20.40;99.90;;;20.84;80.53;101535.56;4993584;28;20052;-69
2021/07/11 02:33:13;;;;;;;40.25;31.70;;;20.40;99.90;;;20.84;80.08;101540.06;4992302;28;20042;-68
2021/07/11 02:35:47;;;;;;;44.63;33.00;;;20.50;99.90;;;20.48;80.15;101540.44;4992170;28;20384;-69
2021/07/11 02:38:17;;;;;;;43.22;32.30;;;20.30;99.90;;;20.60;80.42;101544.50;4993550;28;20046;-68
2021/07/11 02:40:48;;;;;;;43.05;32.90;;;20.20;99.90;;;20.70;80.76;101543.25;5008532;28;20135;-68
2021/07/11 02:43:20;;;;;;;40.40;31.52;;;20.30;99.90;;;20.74;81.16;101539.53;5008557;28;20121;-68
2021/07/11 02:45:49;;;;;;;43.00;33.33;;;20.30;99.90;;;20.77;81.25;101543.94;4992193;28;20043;-68
2021/07/11 02:48:20;;;;;;;40.00;31.25;;;20.30;99.90;;;20.74;81.20;101536.84;5008383;28;20046;-68
2021/07/11 02:50:49;;;;;;;38.22;29.45;;;20.40;99.90;;;20.68;80.57;101523.59;4993615;28;20105;-68
2021/07/11 02:53:22;;;;;;;37.63;29.25;;;20.40;99.90;;;20.68;80.85;101546.00;4995245;28;20054;-68
2021/07/11 02:56:01;;;;;;;46.50;30.25;;;20.30;99.90;;;20.71;80.76;101541.44;4996681;28;20046;-68
2021/07/11 02:58:37;;;;;;;38.58;30.40;;;20.30;99.90;;;20.72;80.93;101540.50;4996796;28;20058;-68
2021/07/11 03:01:08;;;;;;;36.67;29.00;;;20.30;99.90;;;20.72;80.52;101537.81;5012072;28;20046;-68
2021/07/11 03:03:38;;;;;;;39.50;30.33;;;20.30;99.90;;;20.52;80.98;101528.63;5011784;28;20042;-68
2021/07/11 03:06:09;;;;;;;37.30;30.63;;;20.20;99.90;;;20.43;81.57;101534.34;4996663;28;20054;-68
2021/07/11 03:08:39;;;;;;;38.45;30.58;;;20.00;99.90;;;20.50;81.47;101527.81;4995347;28;20108;-68
2021/07/11 03:11:20;;;;;;;37.05;30.42;;;20.10;99.90;;;20.41;81.99;101521.88;4995512;28;20093;-68
2021/07/11 03:13:50;;;;;;;41.00;32.20;;;20.00;99.90;;;20.37;82.21;101528.28;5011291;28;20078;-68
2021/07/11 03:16:22;;;;;;;36.83;30.73;;;19.90;99.90;;;20.53;81.64;101525.03;5011429;28;20042;-69
2021/07/11 03:18:56;;;;;;;38.47;30.60;;;20.10;99.90;;;20.54;81.39;101516.03;5011631;28;20046;-68
2021/07/11 03:21:30;;;;;;;36.45;29.60;;;20.10;99.90;;;20.54;81.48;101509.75;5011636;28;20128;-69
2021/07/11 03:23:59;;;;;;;36.50;28.93;;;20.10;99.90;;;20.52;81.31;101512.50;4994807;28;20393;-68
2021/07/11 03:26:31;;;;;;;34.75;28.05;;;20.10;99.90;;;20.53;81.45;101516.97;4994746;28;20062;-68
2021/07/11 03:29:25;;;;;;;35.88;29.52;;;20.10;99.90;;;20.44;81.49;101497.59;4996177;28;20564;-68
2021/07/11 03:31:56;;;;;;;36.95;29.40;;;20.10;99.90;;;20.50;81.60;101510.78;4995876;28;20042;-68
2021/07/11 03:34:28;;;;;;;35.83;29.20;;;20.10;99.90;;;20.53;81.24;101516.09;4996104;28;20452;-69
2021/07/11 03:37:08;;;;;;;36.65;29.33;;;20.10;99.90;;;20.50;81.40;101513.47;4994764;28;20066;-68
2021/07/11 03:39:46;;;;;;;38.83;30.88;;;20.10;99.90;;;20.56;81.09;101514.16;5011036;28;20050;-70
2021/07/11 03:42:20;;;;;;;36.00;29.42;;;20.10;99.90;;;20.51;80.68;101508.06;4995916;28;20050;-69
2021/07/11 03:44:55;;;;;;;35.75;27.70;;;20.10;99.90;;;20.56;80.93;101514.16;4995633;28;20480;-69
2021/07/11 03:47:24;;;;;;;39.60;29.25;;;20.10;99.90;;;20.63;80.69;101509.47;4995661;28;20503;-69
2021/07/11 03:49:56;;;;;;;36.92;28.20;;;20.20;99.90;;;20.04;80.64;101400.44;4995893;28;20050;-69
2021/07/11 03:52:27;;;;;;;36.03;28.98;;;20.20;99.90;;;20.61;80.42;101497.88;4995798;28;20046;-69
2021/07/11 03:54:58;;;;;;;37.65;29.45;;;20.20;99.90;;;20.44;80.17;101465.34;4995662;28;20069;-69
2021/07/11 03:57:29;;;;;;;33.17;28.83;;;20.20;99.90;;;20.58;79.97;101500.66;4996032;28;20411;-69
2021/07/11 04:00:01;;;;;;;37.08;28.35;;;20.20;99.90;;;20.71;79.77;101493.94;4995695;28;20129;-70
2021/07/11 04:02:34;;;;;;;32.40;27.52;;;20.30;99.90;;;20.73;79.63;101499.25;4995486;28;20054;-69
2021/07/11 04:05:05;;;;;;;33.38;27.15;;;20.30;99.90;;;20.73;79.76;101493.88;5010003;28;20077;-69
2021/07/11 04:07:36;;;;;;;34.92;27.33;;;20.30;99.90;;;20.69;80.04;101488.59;4995513;28;20050;-70
2021/07/11 04:10:07;;;;;;;35.60;28.05;;;20.30;99.90;;;20.69;80.57;101483.19;4995067;28;20480;-69
2021/07/11 04:12:36;;;;;;;34.63;27.15;;;20.30;99.90;;;20.82;80.39;101483.66;4995075;28;20487;-70
2021/07/11 04:15:07;;;;;;;35.67;29.08;;;20.30;99.90;;;20.82;80.16;101488.16;5010336;28;20050;-70
2021/07/11 04:17:38;;;;;;;35.50;27.48;;;20.40;99.90;;;20.86;80.16;101487.09;4995165;28;20412;-69
2021/07/11 04:20:10;;;;;;;32.42;26.33;;;20.50;99.90;;;20.65;80.07;101476.19;4993747;28;20515;-69
2021/07/11 04:22:42;;;;;;;33.88;28.52;;;20.40;99.90;;;20.83;80.09;101482.69;4995201;28;20077;-69
2021/07/11 04:25:12;;;;;;;32.83;27.90;;;20.40;99.90;;;20.78;79.92;101473.94;4994905;28;20045;-70
2021/07/11 04:27:41;;;;;;;31.70;26.15;;;20.40;99.90;;;20.81;79.96;101473.81;4994863;28;20050;-69
2021/07/11 04:30:12;;;;;;;31.65;26.38;;;20.40;99.90;;;20.85;80.03;101478.16;4995020;28;20070;-69
2021/07/11 04:32:40;;;;;;;32.70;27.50;;;20.40;99.90;;;20.81;80.30;101475.66;4994905;28;20444;-69
2021/07/11 04:35:10;;;;;;;34.65;27.15;;;20.40;99.90;;;20.85;80.50;101477.28;4995392;28;20050;-69
2021/07/11 04:37:38;;;;;;;37.17;28.67;;;20.40;99.90;;;20.77;80.54;101463.25;4994858;28;20085;-69
2021/07/11 04:40:09;;;;;;;33.22;27.80;;;20.40;99.90;;;20.80;80.72;101466.69;4994843;28;20050;-69
2021/07/11 04:42:37;;;;;;;35.17;27.00;;;20.40;99.90;;;20.85;80.67;101458.47;4994844;28;20053;-70
2021/07/11 04:45:07;;;;;;;35.17;28.60;;;20.40;99.90;;;20.84;80.61;101454.88;4994717;28;20440;-69
2021/07/11 04:47:37;;;;;;;35.88;28.92;;;20.40;99.90;;;20.85;80.92;101458.47;4994464;28;20476;-69
2021/07/11 04:50:08;;;;;;;32.55;26.58;;;20.40;99.90;;;20.87;81.23;101459.25;4994502;28;20046;-69
2021/07/11 04:52:38;;;;;;;33.10;27.88;;;20.40;99.90;;;20.91;81.21;101463.59;4994647;28;20046;-69
2021/07/11 04:55:09;;;;;;;;;;;20.50;99.90;;;20.90;81.10;101460.03;4995003;28;20057;-69
2021/07/11 04:57:38;;;;;;;30.75;26.13;;;20.50;99.90;;;20.98;81.00;101465.97;4994583;28;19926;-69
2021/07/11 05:00:11;;;;;;;31.35;25.75;;;20.50;99.90;;;21.03;80.70;101477.50;4992961;28;20050;-69
2021/07/11 05:02:41;;;;;;;34.83;26.83;;;20.60;99.90;;;21.09;80.38;101476.38;4994461;28;20447;-70
2021/07/11 05:05:10;;;;;;;31.58;26.58;;;20.70;99.90;;;20.96;80.28;101469.69;4994493;28;20070;-69
2021/07/11 05:07:40;;;;;;;34.03;28.38;;;20.70;99.90;;;21.04;79.80;101494.53;4994137;28;20053;-69
2021/07/11 05:10:10;;;;;;;34.28;27.95;;;20.70;99.90;;;21.04;79.79;101497.22;4994322;28;20048;-69
2021/07/11 05:12:39;;;;;;;31.92;26.15;;;20.60;99.90;;;21.11;79.63;101504.13;4994251;28;20397;-69
2021/07/11 05:15:09;;;;;;;30.45;26.05;;;20.70;99.90;;;21.11;79.56;101504.13;4994002;28;20061;-69
2021/07/11 05:17:39;;;;;;;30.42;27.13;;;20.70;99.90;;;21.11;79.56;101504.13;4993893;28;20484;-69
2021/07/11 05:20:10;;;;;;;33.40;27.27;;;20.70;99.90;;;21.11;79.33;101507.69;4994269;28;20054;-69
2021/07/11 05:22:39;;;;;;;33.65;27.75;;;20.70;99.90;;;21.13;79.00;101508.53;4994249;28;20164;-69
2021/07/11 05:25:09;;;;;;;30.17;26.55;;;20.70;99.90;;;21.10;78.74;101513.16;5009027;28;20038;-69
2021/07/11 05:27:37;;;;;;;32.92;28.38;;;20.70;99.90;;;21.10;78.55;101511.31;4994144;28;20097;-69
2021/07/11 05:30:07;;;;;;;34.35;27.05;;;20.70;99.90;;;21.12;78.38;101522.00;4993730;28;20069;-69
2021/07/11 05:32:36;;;;;;;32.13;26.88;;;20.60;99.90;;;21.10;78.21;101521.22;5009145;28;20046;-69
2021/07/11 05:35:07;;;;;;;30.63;26.65;;;20.60;99.90;;;21.05;77.79;101525.88;5009033;28;20046;-69
2021/07/11 05:37:36;;;;;;;32.53;27.08;;;20.60;99.90;;;21.00;77.98;101520.59;4993831;28;20046;-69
2021/07/11 05:40:06;;;;;;;34.10;27.55;;;20.60;99.90;;;21.00;78.08;101527.84;4993958;28;20124;-69
2021/07/11 05:42:35;;;;;;;30.80;26.77;;;20.60;99.90;;;20.96;78.43;101534.25;4994002;28;20077;-69
2021/07/11 05:45:06;;;;;;;33.83;26.73;;;20.50;99.90;;;20.94;78.62;101534.31;4993693;28;20070;-69
2021/07/11 05:47:34;;;;;;;29.88;26.23;;;20.50;99.90;;;20.94;78.38;101537.00;4993825;28;20054;-69
2021/07/11 05:50:03;;;;;;;30.10;25.90;;;20.50;99.90;;;20.97;78.49;101544.06;4993626;28;20046;-69
2021/07/11 05:52:33;;;;;;;31.48;27.15;;;20.50;99.90;;;20.97;78.37;101542.25;4994085;28;20080;-69
2021/07/11 05:55:02;;;;;;;30.55;27.08;;;20.50;99.90;;;20.98;78.34;101540.47;4994099;28;20054;-68
2021/07/11 05:57:31;;;;;;;32.65;26.70;;;20.50;99.90;;;20.99;78.47;101543.09;4993766;28;20059;-69
2021/07/11 05:59:59;;;;;;;38.30;30.08;;;20.60;99.90;;;20.94;78.58;101547.78;4993799;28;20046;-70
2021/07/11 06:02:28;;;;;;;40.90;32.83;;;20.50;99.90;;;20.94;78.53;101552.25;4993669;28;20105;-69
2021/07/11 06:05:00;;;;;;;44.60;34.15;;;20.50;99.90;;;20.91;78.81;101555.03;4993754;28;20050;-69
2021/07/11 06:07:28;;;;;;;49.95;37.17;;;20.50;99.90;;;20.85;79.01;101557.97;4993736;28;20069;-69
2021/07/11 06:09:59;;;;;;;49.20;38.13;;;20.40;99.90;;;20.91;78.91;101563.13;4993742;28;20046;-69
2021/07/11 06:12:27;;;;;;;50.65;39.55;;;20.50;99.90;;;20.92;79.06;101567.56;4993688;28;20447;-69
2021/07/11 06:14:56;;;;;;;52.10;40.03;;;20.50;99.90;;;20.95;79.03;101572.84;4993658;28;20046;-69
2021/07/11 06:17:26;;;;;;;50.33;40.03;;;20.50;99.90;;;21.00;78.99;101584.31;4993214;28;20078;-69
2021/07/11 06:19:54;;;;;;;52.20;40.85;;;20.60;99.90;;;21.01;78.87;101586.09;4993393;28;20050;-68
2021/07/11 06:22:23;;;;;;;52.42;42.00;;;20.60;99.90;;;20.98;78.86;101581.66;4993592;28;20038;-68
2021/07/11 06:24:51;;;;;;;52.80;40.47;;;20.60;99.90;;;20.97;78.70;101579.03;4993591;28;20117;-70
2021/07/11 06:27:22;;;;;;;54.85;41.53;;;20.50;99.90;;;20.99;78.83;101586.13;5010321;28;20049;-69
2021/07/11 06:29:51;;;;;;;55.35;43.45;;;20.60;99.90;;;21.00;78.76;101585.19;4996323;28;20554;-69
2021/07/11 06:32:19;;;;;;;55.20;42.53;;;20.60;99.90;;;20.96;78.90;101577.28;4997211;28;20055;-69
2021/07/11 06:34:47;;;;;;;55.88;41.63;;;20.60;99.90;;;21.00;78.96;101578.94;4997409;28;20058;-69
2021/07/11 06:37:16;;;;;;;54.40;43.58;;;20.60;99.90;;;21.00;79.07;101582.50;4996910;28;20049;-68
2021/07/11 06:39:44;;;;;;;56.88;43.92;;;20.60;99.90;;;21.01;79.12;101580.72;5012341;28;20054;-69
2021/07/11 06:42:13;;;;;;;55.55;43.63;;;20.60;99.90;;;21.00;79.21;101578.94;4996951;28;20054;-69
2021/07/11 06:44:42;;;;;;;57.45;44.97;;;20.60;99.90;;;21.04;79.18;101576.09;4996750;28;20073;-69
2021/07/11 06:47:11;;;;;;;60.70;45.42;;;20.60;99.90;;;20.95;79.65;101584.47;4996904;28;20050;-69
2021/07/11 06:49:39;;;;;;;58.67;44.38;;;20.60;99.90;;;20.91;80.08;101587.31;4995542;28;20113;-69
2021/07/11 06:52:08;;;;;;;55.83;44.38;;;20.50;99.90;;;20.98;79.90;101587.03;5011932;28;20050;-69
2021/07/11 06:54:36;;;;;;;59.97;44.78;;;20.50;99.90;;;21.02;79.67;101588.72;4997080;28;20054;-69
2021/07/11 06:57:06;;;;;;;56.17;43.53;;;20.60;99.90;;;21.05;79.58;101590.44;4996775;28;20046;-69
2021/07/11 06:59:35;;;;;;;56.40;45.05;;;20.60;99.90;;;21.07;79.46;101593.97;5011729;28;20070;-70
2021/07/11 07:02:05;;;;;;;57.55;44.78;;;20.60;99.90;;;21.04;79.54;101589.56;4995379;28;20097;-70
2021/07/11 07:04:34;;;;;;;60.28;45.92;;;20.60;99.90;;;21.06;79.59;101592.22;4995164;28;20081;-70
2021/07/11 07:07:03;;;;;;;67.40;45.53;;;20.60;99.90;;;21.06;79.72;101597.59;4994975;28;20046;-69
2021/07/11 07:09:31;;;;;;;57.85;46.40;;;20.60;99.90;;;21.03;79.74;101590.50;4996466;28;20081;-70
2021/07/11 07:12:00;;;;;;;58.83;45.58;;;20.70;99.90;;;21.05;79.90;101598.50;4996492;28;20058;-69
2021/07/11 07:14:28;;;;;;;57.33;45.25;;;20.60;99.90;;;21.05;79.91;101599.41;4996102;28;20052;-70
2021/07/11 07:16:57;;;;;;;58.90;46.58;;;20.60;99.90;;;21.13;80.02;101600.00;4996586;28;20073;-70
2021/07/11 07:19:26;;;;;;;54.92;43.55;;;20.70;99.90;;;21.17;79.83;101598.97;4996105;28;20050;-69
2021/07/11 07:21:55;;;;;;;61.70;47.07;;;20.70;99.90;;;21.15;80.39;101600.84;4996071;28;20058;-69
2021/07/11 07:24:23;;;;;;;51.90;43.10;;;20.80;99.90;;;21.20;80.29;101604.22;4994980;28;20344;-69
2021/07/11 07:26:52;;;;;;;59.22;44.92;;;20.80;99.90;;;21.21;80.40;101605.09;4994792;28;20393;-70
2021/07/11 07:29:20;;;;;;;55.00;45.53;;;20.80;99.90;;;21.21;80.92;101606.00;4995915;28;20042;-69
2021/07/11 07:31:50;;;;;;;60.65;47.38;;;20.80;99.90;;;21.21;81.17;101603.31;4996039;28;20100;-69
2021/07/11 07:34:19;;;;;;;53.33;44.43;;;20.80;99.90;;;21.20;80.44;101597.94;4996030;28;20492;-69
2021/07/11 07:36:49;;;;;;;57.55;46.13;;;20.80;99.90;;;21.12;80.96;101602.72;4996313;28;20297;-69
2021/07/11 07:39:17;;;;;;;60.17;45.50;;;20.80;99.90;;;21.12;80.74;101602.72;4995181;28;20047;-70
2021/07/11 07:41:46;;;;;;;60.83;46.55;;;20.70;99.90;;;21.21;80.76;101610.50;4995952;28;20087;-69
2021/07/11 07:44:14;;;;;;;53.60;42.50;;;20.80;99.90;;;21.21;80.70;101610.50;4996063;28;20046;-68
2021/07/11 07:46:42;;;;;;;54.83;44.05;;;20.80;99.90;;;21.24;80.92;101607.66;4995850;28;20097;-69
2021/07/11 07:49:11;;;;;;;56.70;44.03;;;20.80;99.90;;;21.19;81.06;101607.88;4995917;28;20093;-69
2021/07/11 07:51:40;;;;;;;55.60;44.33;;;20.80;99.90;;;21.28;81.54;101603.94;4995691;28;20133;-70
2021/07/11 07:54:10;;;;;;;55.20;43.50;;;20.90;99.90;;;21.29;80.92;101611.09;4995468;28;20499;-68
2021/07/11 07:56:38;;;;;;;56.03;43.70;;;20.90;99.90;;;21.20;81.09;101614.09;5010556;28;20050;-69
2021/07/11 07:59:07;;;;;;;51.75;42.00;;;20.80;99.90;;;21.28;80.64;101618.28;4995359;28;20043;-69
2021/07/11 08:01:37;;;;;;;55.08;41.33;;;20.90;99.90;;;21.17;80.91;101600.78;5010455;28;20051;-70
2021/07/11 08:04:07;;;;;;;52.33;41.78;;;20.80;99.90;;;20.95;81.15;101584.47;4994271;28;20137;-69
2021/07/11 08:06:37;;;;;;;50.05;40.15;;;20.70;99.90;;;21.29;81.22;101611.09;4995132;28;20050;-71
2021/07/11 08:09:08;;;;;;;57.22;44.67;;;20.90;99.90;;;21.43;80.94;101606.06;4995165;28;20054;-71
2021/07/11 08:11:37;;;;;;;55.75;44.50;;;21.00;99.90;;;21.47;80.81;101615.78;4995566;28;20050;-70
2021/07/11 08:14:05;;;;;;;56.03;43.38;;;21.10;99.90;;;21.53;80.46;101610.16;4995255;28;20478;-70
2021/07/11 08:16:34;;;;;;;57.67;44.58;;;21.20;99.90;;;21.63;80.06;101608.88;4995449;28;20443;-70
2021/07/11 08:19:02;;;;;;;57.28;45.38;;;21.30;99.90;;;21.34;81.50;101603.72;5010180;28;20064;-70
2021/07/11 08:21:31;;;;;;;58.78;44.55;;;21.10;99.90;;;21.31;81.03;101606.53;5010050;28;20550;-67
2021/07/11 08:23:59;;;;;;;57.45;46.88;;;21.10;99.90;;;21.22;81.99;101599.66;4994694;28;20408;-68
2021/07/11 08:26:31;;;;;;;60.55;47.55;;;20.90;99.90;;;21.48;81.83;101602.28;4994587;28;20129;-68
2021/07/11 08:29:00;;;;;;;61.08;47.13;;;21.10;99.90;;;21.58;81.83;101602.81;4994760;28;20096;-67
2021/07/11 08:31:28;;;;;;;56.65;45.08;;;21.20;99.90;;;21.81;82.02;101607.34;4994998;28;20034;-67
2021/07/11 08:33:58;;;;;;;60.13;47.03;;;21.40;99.90;;;22.07;82.06;101597.28;4994933;28;20042;-67
2021/07/11 08:36:28;;;;;;;57.60;45.67;;;21.70;99.90;;;22.29;81.81;101594.59;4994896;28;20038;-69
2021/07/11 08:38:56;;;;;;;58.60;45.35;;;22.00;99.90;;;22.48;81.03;101583.91;4994826;28;20484;-71
2021/07/11 08:41:26;;;;;;;53.97;43.47;;;22.20;99.90;;;22.50;79.19;101566.75;4994725;28;20104;-69
2021/07/11 08:43:58;;;;;;;46.55;37.97;;;22.40;99.90;;;22.56;76.20;101589.88;4993280;28;20137;-69
2021/07/11 08:46:26;;;;;;;50.53;39.63;;;22.40;99.90;;;22.61;77.04;101602.25;4994740;28;20420;-68
2021/07/11 08:48:55;;;;;;;45.20;36.80;;;22.40;99.90;;;22.59;75.82;101597.88;4994176;28;20361;-68
2021/07/11 08:51:23;;;;;;;39.95;33.67;;;22.40;99.90;;;22.67;75.19;101609.19;4994521;28;20054;-70
2021/07/11 08:53:53;;;;;;;44.65;35.47;;;22.50;99.90;;;22.79;74.55;101606.88;4994131;28;20121;-69
2021/07/11 08:56:25;;;;;;;43.22;35.78;;;22.60;99.90;;;22.91;74.47;101611.75;4994426;28;20042;-69
2021/07/11 08:58:57;;;;;;;40.30;35.30;;;22.70;99.90;;;22.67;73.34;101593.00;5009544;28;20496;-69
2021/07/11 09:01:27;;;;;;;42.47;34.25;;;22.70;99.90;;;22.88;73.80;101621.78;4994483;28;20520;-69
2021/07/11 09:04:06;;;;;;;41.22;33.63;;;22.70;99.90;;;22.90;72.81;101612.66;4994449;28;20407;-70
2021/07/11 09:06:47;;;;;;;36.67;31.13;;;22.70;99.90;;;23.17;74.11;101619.56;4993967;28;20432;-69
2021/07/11 09:09:25;;;;;;;42.28;32.50;;;22.90;99.90;;;23.31;73.63;101610.88;4994111;28;20038;-69
2021/07/11 09:11:58;;;;;;;37.55;31.30;;;23.10;99.90;;;23.44;71.59;101611.22;4994262;28;20045;-68
2021/07/11 09:14:31;;;;;;;35.70;30.70;;;23.20;99.90;;;23.46;71.47;101618.28;5009317;28;20046;-69
2021/07/11 09:17:03;;;;;;;35.50;30.48;;;23.20;99.90;;;23.65;71.71;101621.03;4993968;28;20057;-69
2021/07/11 09:19:35;;;;;;;33.78;28.88;;;23.30;99.90;;;23.55;69.77;101603.47;4992529;28;20068;-64
2021/07/11 09:22:09;;;;;;;35.97;29.48;;;23.50;99.90;;;23.74;71.18;101615.19;5009173;28;20070;-67
2021/07/11 09:24:48;;;;;;;36.60;29.90;;;23.50;99.90;;;23.96;69.84;101619.50;4994122;28;20042;-70
2021/07/11 09:27:19;;;;;;;38.17;30.60;;;23.70;99.90;;;24.01;68.85;101625.56;4993908;28;20076;-70
2021/07/11 09:29:49;;;;;;;37.70;30.95;;;23.80;99.90;;;24.14;69.68;101602.44;4994152;28;20058;-69
2021/07/11 09:32:38;;;;;;;34.30;28.83;;;23.90;99.90;;;24.47;68.92;101626.06;4993915;28;20403;-69
2021/07/11 09:35:11;;;;;;;34.95;30.00;;;24.20;99.90;;;24.50;67.86;101632.22;4994031;28;20128;-69
2021/07/11 09:37:42;;;;;;;33.97;29.10;;;24.30;99.90;;;24.47;66.96;101620.63;4993880;28;20054;-68
2021/07/11 09:40:12;;;;;;;34.03;28.55;;;24.30;99.90;;;24.52;66.50;101632.13;5009003;28;20105;-70
2021/07/11 09:42:43;;;;;;;35.85;30.05;;;24.40;99.90;;;24.33;66.62;101637.56;4993802;28;20381;-71
2021/07/11 09:45:20;;;;;;;33.28;28.77;;;24.20;99.90;;;24.39;66.77;101639.97;4993798;28;20042;-69
2021/07/11 09:47:51;;;;;;;33.65;27.42;;;24.10;99.90;;;24.30;67.52;101615.19;4993600;28;20049;-69
2021/07/11 09:50:23;;;;;;;33.40;28.58;;;24.10;99.90;;;24.42;66.42;101633.53;4993590;28;20054;-73
2021/07/11 09:52:54;;;;;;;32.35;28.40;;;24.10;99.90;;;24.38;66.64;101613.00;4993825;28;20062;-71
2021/07/11 09:55:24;;;;;;;32.15;28.58;;;24.10;99.90;;;24.50;66.48;101628.63;4993452;28;20400;-67
2021/07/11 09:57:55;;;;;;;36.28;30.35;;;24.10;99.90;;;24.46;66.07;101624.31;5008767;28;20081;-69
2021/07/11 10:00:28;;;;;;;33.70;29.45;;;24.20;99.90;;;24.11;65.68;101620.63;5008706;28;20385;-70
2021/07/11 10:02:58;;;;;;;34.80;29.45;;;23.90;99.90;;;24.12;65.46;101617.84;4996512;28;20046;-69
2021/07/11 10:05:28;;;;;;;33.20;28.05;;;23.90;99.90;;;23.75;65.51;101622.34;4997745;28;20042;-70
2021/07/11 10:07:57;;;;;;;35.58;31.13;;;23.50;99.90;;;23.51;66.37;101616.25;4997957;28;20050;-71
2021/07/11 10:10:28;;;;;;;36.13;30.60;;;23.20;99.90;;;23.46;66.49;101614.72;5012689;28;20432;-71
2021/07/11 10:12:57;;;;;;;33.42;29.13;;;23.10;99.90;;;23.44;66.42;101593.16;4997374;28;20053;-70
2021/07/11 10:15:30;;;;;;;34.45;30.80;;;23.10;99.90;;;23.76;65.86;101616.88;4997707;28;20046;-71